sensor_id;sensor_type;location;lat;lon;timestamp;pressure;altitude;pressure_sealevel;temperature;humidity
76847;BME280;65813;49.546;8.644;2023-07-13T03:45:20;100580.72;;;19.82;52.95
76847;BME280;65813;49.546;8.644;2023-07-13T03:49:21;100581.00;;;19.63;51.72
76847;BME280;65813;49.546;8.644;2023-07-13T03:53:21;100586.75;;;19.76;53.87
76847;BME280;65813;49.546;8.644;2023-07-13T03:57:21;100587.63;;;19.77;53.28
76847;BME280;65813;49.546;8.644;2023-07-13T04:01:23;100594.19;;;19.66;52.83
76847;BME280;65813;49.546;8.644;2023-07-13T04:05:25;100597.19;;;19.55;52.54
76847;BME280;65813;49.546;8.644;2023-07-13T04:09:25;100598.38;;;19.44;53.39
76847;BME280;65813;49.546;8.644;2023-07-13T04:13:26;100591.28;;;19.59;53.29
76847;BME280;65813;49.546;8.644;2023-07-13T04:17:26;100591.81;;;19.63;54.68
76847;BME280;65813;49.546;8.644;2023-07-13T04:21:28;100595.88;;;19.67;55.26
76847;BME280;65813;49.546;8.644;2023-07-13T04:25:29;100600.94;;;19.62;55.51
76847;BME280;65813;49.546;8.644;2023-07-13T04:29:29;100607.63;;;19.42;54.23
76847;BME280;65813;49.546;8.644;2023-07-13T04:33:30;100610.00;;;19.45;53.98
76847;BME280;65813;49.546;8.644;2023-07-13T04:37:30;100612.63;;;19.29;53.06
76847;BME280;65813;49.546;8.644;2023-07-13T04:41:30;100613.00;;;19.34;54.48
76847;BME280;65813;49.546;8.644;2023-07-13T04:45:31;100614.91;;;19.49;56.12
76847;BME280;65813;49.546;8.644;2023-07-13T04:49:31;100618.28;;;19.51;55.57
76847;BME280;65813;49.546;8.644;2023-07-13T04:53:32;100620.50;;;19.56;54.49
76847;BME280;65813;49.546;8.644;2023-07-13T04:57:34;100618.31;;;19.59;55.84
76847;BME280;65813;49.546;8.644;2023-07-13T05:01:34;100625.59;;;19.51;54.06
76847;BME280;65813;49.546;8.644;2023-07-13T05:05:35;100626.41;;;19.51;53.21
76847;BME280;65813;49.546;8.644;2023-07-13T05:09:35;100625.97;;;19.30;53.06
76847;BME280;65813;49.546;8.644;2023-07-13T05:13:35;100621.75;;;19.36;52.95
76847;BME280;65813;49.546;8.644;2023-07-13T05:17:36;100627.16;;;19.36;53.58
76847;BME280;65813;49.546;8.644;2023-07-13T05:21:39;100636.00;;;18.78;57.25
76847;BME280;65813;49.546;8.644;2023-07-13T05:25:39;100647.16;;;19.09;56.99
76847;BME280;65813;49.546;8.644;2023-07-13T05:29:39;100643.50;;;19.26;56.62
76847;BME280;65813;49.546;8.644;2023-07-13T05:33:40;100645.59;;;19.40;56.59
76847;BME280;65813;49.546;8.644;2023-07-13T05:37:40;100643.91;;;19.39;55.22
76847;BME280;65813;49.546;8.644;2023-07-13T05:41:40;100648.19;;;19.50;55.31
76847;BME280;65813;49.546;8.644;2023-07-13T05:45:41;100650.25;;;19.56;55.89
76847;BME280;65813;49.546;8.644;2023-07-13T05:49:41;100654.66;;;19.57;55.75
76847;BME280;65813;49.546;8.644;2023-07-13T05:53:42;100669.88;;;18.98;54.89
76847;BME280;65813;49.546;8.644;2023-07-13T05:57:42;100670.53;;;19.26;55.78
76847;BME280;65813;49.546;8.644;2023-07-13T06:01:43;100665.44;;;19.23;55.06
76847;BME280;65813;49.546;8.644;2023-07-13T06:05:43;100665.66;;;19.30;54.40
76847;BME280;65813;49.546;8.644;2023-07-13T06:09:43;100681.34;;;19.34;54.85
76847;BME280;65813;49.546;8.644;2023-07-13T06:13:44;100689.84;;;19.39;55.51
76847;BME280;65813;49.546;8.644;2023-07-13T06:17:44;100686.56;;;19.28;55.52
76847;BME280;65813;49.546;8.644;2023-07-13T06:21:45;100678.91;;;19.41;56.20
76847;BME280;65813;49.546;8.644;2023-07-13T06:25:45;100689.09;;;19.55;55.87
76847;BME280;65813;49.546;8.644;2023-07-13T06:29:46;100692.63;;;19.47;56.35
76847;BME280;65813;49.546;8.644;2023-07-13T06:33:46;100705.66;;;19.34;54.38
76847;BME280;65813;49.546;8.644;2023-07-13T06:37:46;100711.59;;;19.30;55.44
76847;BME280;65813;49.546;8.644;2023-07-13T06:41:47;100713.22;;;19.48;53.70
76847;BME280;65813;49.546;8.644;2023-07-13T06:45:48;100720.16;;;19.25;54.69
76847;BME280;65813;49.546;8.644;2023-07-13T06:49:49;100716.56;;;19.42;53.99
76847;BME280;65813;49.546;8.644;2023-07-13T06:53:50;100711.09;;;19.08;53.79
76847;BME280;65813;49.546;8.644;2023-07-13T06:57:50;100713.66;;;19.70;52.32
76847;BME280;65813;49.546;8.644;2023-07-13T07:01:50;100716.16;;;19.63;49.86
76847;BME280;65813;49.546;8.644;2023-07-13T07:05:51;100719.91;;;19.70;50.05
76847;BME280;65813;49.546;8.644;2023-07-13T07:09:51;100720.28;;;19.83;48.89
76847;BME280;65813;49.546;8.644;2023-07-13T07:13:52;100729.00;;;19.69;49.10
76847;BME280;65813;49.546;8.644;2023-07-13T07:17:53;100722.09;;;19.66;49.94
76847;BME280;65813;49.546;8.644;2023-07-13T07:21:53;100739.25;;;19.49;49.40
76847;BME280;65813;49.546;8.644;2023-07-13T07:25:54;100732.13;;;19.48;52.05
76847;BME280;65813;49.546;8.644;2023-07-13T07:29:54;100730.16;;;19.58;51.42
76847;BME280;65813;49.546;8.644;2023-07-13T07:33:54;100731.81;;;19.85;50.35
76847;BME280;65813;49.546;8.644;2023-07-13T07:37:55;100729.63;;;19.89;49.00
76847;BME280;65813;49.546;8.644;2023-07-13T07:41:55;100726.59;;;19.92;48.29
76847;BME280;65813;49.546;8.644;2023-07-13T07:45:55;100739.28;;;19.99;47.70
76847;BME280;65813;49.546;8.644;2023-07-13T07:49:56;100726.94;;;20.05;47.58
76847;BME280;65813;49.546;8.644;2023-07-13T07:53:56;100728.13;;;20.10;47.76
76847;BME280;65813;49.546;8.644;2023-07-13T07:57:57;100738.47;;;20.15;47.96
76847;BME280;65813;49.546;8.644;2023-07-13T08:01:57;100735.91;;;20.13;47.96
76847;BME280;65813;49.546;8.644;2023-07-13T08:05:57;100735.81;;;20.23;48.83
76847;BME280;65813;49.546;8.644;2023-07-13T08:09:58;100742.44;;;20.29;47.87
76847;BME280;65813;49.546;8.644;2023-07-13T08:13:58;100742.59;;;20.27;47.08
76847;BME280;65813;49.546;8.644;2023-07-13T08:17:58;100739.03;;;20.35;47.30
76847;BME280;65813;49.546;8.644;2023-07-13T08:21:59;100738.72;;;20.46;48.12
76847;BME280;65813;49.546;8.644;2023-07-13T08:25:59;100734.50;;;20.59;49.61
76847;BME280;65813;49.546;8.644;2023-07-13T08:30:02;100728.94;;;20.85;46.32
76847;BME280;65813;49.546;8.644;2023-07-13T08:34:02;100724.34;;;20.94;46.27
76847;BME280;65813;49.546;8.644;2023-07-13T08:38:02;100720.25;;;21.30;46.11
76847;BME280;65813;49.546;8.644;2023-07-13T08:42:45;100721.75;;;21.80;44.72
76847;BME280;65813;49.546;8.644;2023-07-13T08:46:47;100722.50;;;22.04;44.69
76847;BME280;65813;49.546;8.644;2023-07-13T08:51:02;100719.91;;;22.19;42.88
76847;BME280;65813;49.546;8.644;2023-07-13T08:55:22;100714.25;;;21.98;43.21
76847;BME280;65813;49.546;8.644;2023-07-13T08:59:27;100723.25;;;22.75;41.17
76847;BME280;65813;49.546;8.644;2023-07-13T09:03:36;100714.28;;;22.66;40.86
76847;BME280;65813;49.546;8.644;2023-07-13T09:07:58;100707.50;;;22.62;42.26
76847;BME280;65813;49.546;8.644;2023-07-13T09:12:14;100707.41;;;22.55;41.00
76847;BME280;65813;49.546;8.644;2023-07-13T09:16:17;100708.84;;;22.66;40.20
76847;BME280;65813;49.546;8.644;2023-07-13T09:20:25;100706.50;;;22.63;41.43
76847;BME280;65813;49.546;8.644;2023-07-13T09:24:39;100698.19;;;22.42;42.22
76847;BME280;65813;49.546;8.644;2023-07-13T09:28:43;100705.84;;;22.84;42.55
76847;BME280;65813;49.546;8.644;2023-07-13T09:32:47;100696.09;;;23.41;39.85
76847;BME280;65813;49.546;8.644;2023-07-13T09:36:49;100700.56;;;23.20;40.06
76847;BME280;65813;49.546;8.644;2023-07-13T09:41:15;100708.19;;;22.87;41.14
76847;BME280;65813;49.546;8.644;2023-07-13T09:45:30;100703.56;;;22.73;40.25
76847;BME280;65813;49.546;8.644;2023-07-13T09:49:35;100691.91;;;22.64;39.13
76847;BME280;65813;49.546;8.644;2023-07-13T09:53:36;100695.88;;;22.76;38.91
76847;BME280;65813;49.546;8.644;2023-07-13T09:57:46;100696.91;;;22.52;40.09
76847;BME280;65813;49.546;8.644;2023-07-13T10:01:47;100698.19;;;22.64;37.84
76847;BME280;65813;49.546;8.644;2023-07-13T10:05:50;100690.72;;;22.67;38.33
76847;BME280;65813;49.546;8.644;2023-07-13T10:09:55;100693.25;;;22.68;38.73
76847;BME280;65813;49.546;8.644;2023-07-13T10:13:59;100696.31;;;22.65;38.43
76847;BME280;65813;49.546;8.644;2023-07-13T10:18:00;100704.50;;;22.57;38.25
76847;BME280;65813;49.546;8.644;2023-07-13T10:22:10;100701.13;;;22.55;40.58
76847;BME280;65813;49.546;8.644;2023-07-13T10:26:19;100703.84;;;22.55;40.73
76847;BME280;65813;49.546;8.644;2023-07-13T10:30:28;100699.03;;;22.65;39.95
76847;BME280;65813;49.546;8.644;2023-07-13T10:34:30;100692.22;;;22.69;39.89
76847;BME280;65813;49.546;8.644;2023-07-13T10:38:31;100705.09;;;22.75;39.20
76847;BME280;65813;49.546;8.644;2023-07-13T10:42:37;100709.69;;;22.89;39.64
76847;BME280;65813;49.546;8.644;2023-07-13T10:46:39;100705.34;;;22.80;37.34
76847;BME280;65813;49.546;8.644;2023-07-13T10:50:43;100706.09;;;22.74;37.96
76847;BME280;65813;49.546;8.644;2023-07-13T10:54:45;100700.72;;;22.89;37.33
76847;BME280;65813;49.546;8.644;2023-07-13T10:58:45;100702.22;;;22.91;37.14
76847;BME280;65813;49.546;8.644;2023-07-13T11:03:00;100703.22;;;23.42;37.01
76847;BME280;65813;49.546;8.644;2023-07-13T11:07:16;100685.44;;;23.76;37.05
76847;BME280;65813;49.546;8.644;2023-07-13T11:15:44;100694.97;;;24.01;35.85
76847;BME280;65813;49.546;8.644;2023-07-13T11:19:51;100691.56;;;23.78;35.85
76847;BME280;65813;49.546;8.644;2023-07-13T11:24:04;100696.09;;;23.56;34.50
76847;BME280;65813;49.546;8.644;2023-07-13T11:28:21;100684.25;;;23.63;34.87
76847;BME280;65813;49.546;8.644;2023-07-13T11:32:30;100674.22;;;23.64;34.25
76847;BME280;65813;49.546;8.644;2023-07-13T11:36:36;100680.84;;;23.76;34.34
76847;BME280;65813;49.546;8.644;2023-07-13T11:40:39;100680.38;;;23.87;33.64
76847;BME280;65813;49.546;8.644;2023-07-13T11:44:46;100680.28;;;23.81;34.79
76847;BME280;65813;49.546;8.644;2023-07-13T11:48:47;100678.88;;;23.85;35.16
76847;BME280;65813;49.546;8.644;2023-07-13T11:52:50;100680.63;;;24.71;34.61
76847;BME280;65813;49.546;8.644;2023-07-13T11:56:55;100676.41;;;24.68;30.97
76847;BME280;65813;49.546;8.644;2023-07-13T12:01:00;100679.84;;;24.55;31.72
76847;BME280;65813;49.546;8.644;2023-07-13T12:05:05;100671.38;;;24.44;31.32
76847;BME280;65813;49.546;8.644;2023-07-13T12:09:14;100677.06;;;24.28;33.69
76847;BME280;65813;49.546;8.644;2023-07-13T12:13:19;100671.13;;;24.03;33.78
76847;BME280;65813;49.546;8.644;2023-07-13T12:17:22;100687.25;;;24.04;34.30
76847;BME280;65813;49.546;8.644;2023-07-13T12:21:30;100682.00;;;24.18;33.91
76847;BME280;65813;49.546;8.644;2023-07-13T12:25:31;100681.19;;;24.02;33.86
76847;BME280;65813;49.546;8.644;2023-07-13T12:29:32;100682.50;;;24.06;33.79
76847;BME280;65813;49.546;8.644;2023-07-13T12:33:33;100672.47;;;23.92;33.34
76847;BME280;65813;49.546;8.644;2023-07-13T12:37:34;100683.22;;;24.00;33.82
76847;BME280;65813;49.546;8.644;2023-07-13T12:41:35;100697.38;;;24.10;33.56
76847;BME280;65813;49.546;8.644;2023-07-13T12:45:35;100688.34;;;24.10;33.76
76847;BME280;65813;49.546;8.644;2023-07-13T12:49:41;100695.88;;;24.08;34.02
76847;BME280;65813;49.546;8.644;2023-07-13T12:53:48;100699.06;;;24.11;32.56
76847;BME280;65813;49.546;8.644;2023-07-13T12:57:56;100709.69;;;24.21;32.81
76847;BME280;65813;49.546;8.644;2023-07-13T13:01:58;100708.09;;;24.12;33.37
76847;BME280;65813;49.546;8.644;2023-07-13T13:06:01;100700.88;;;24.19;32.71
76847;BME280;65813;49.546;8.644;2023-07-13T13:10:11;100699.97;;;24.33;31.93
76847;BME280;65813;49.546;8.644;2023-07-13T13:14:12;100699.13;;;24.54;31.41
76847;BME280;65813;49.546;8.644;2023-07-13T13:18:20;100699.38;;;24.59;31.96
76847;BME280;65813;49.546;8.644;2023-07-13T13:22:21;100705.50;;;24.40;33.02
76847;BME280;65813;49.546;8.644;2023-07-13T13:26:22;100709.13;;;24.26;33.60
76847;BME280;65813;49.546;8.644;2023-07-13T13:30:23;100707.41;;;24.25;33.88
76847;BME280;65813;49.546;8.644;2023-07-13T13:34:25;100708.66;;;24.22;33.60
76847;BME280;65813;49.546;8.644;2023-07-13T13:38:27;100710.91;;;24.19;35.13
76847;BME280;65813;49.546;8.644;2023-07-13T13:42:28;100704.84;;;24.17;34.61
76847;BME280;65813;49.546;8.644;2023-07-13T13:46:29;100715.72;;;24.17;37.34
76847;BME280;65813;49.546;8.644;2023-07-13T13:50:30;100713.84;;;24.02;34.02
76847;BME280;65813;49.546;8.644;2023-07-13T13:54:30;100709.59;;;24.14;33.67
76847;BME280;65813;49.546;8.644;2023-07-13T13:58:30;100709.22;;;24.18;34.49
76847;BME280;65813;49.546;8.644;2023-07-13T14:02:31;100713.06;;;24.08;34.37
76847;BME280;65813;49.546;8.644;2023-07-13T14:06:32;100718.44;;;24.17;34.19
76847;BME280;65813;49.546;8.644;2023-07-13T14:10:33;100711.94;;;24.18;34.53
76847;BME280;65813;49.546;8.644;2023-07-13T14:14:33;100707.81;;;24.22;34.25
76847;BME280;65813;49.546;8.644;2023-07-13T14:18:34;100704.69;;;24.25;34.04
76847;BME280;65813;49.546;8.644;2023-07-13T14:22:34;100711.19;;;24.24;34.55
76847;BME280;65813;49.546;8.644;2023-07-13T14:26:40;100706.88;;;24.14;35.06
76847;BME280;65813;49.546;8.644;2023-07-13T14:30:40;100707.81;;;24.22;34.74
76847;BME280;65813;49.546;8.644;2023-07-13T14:34:41;100712.78;;;24.18;34.41
76847;BME280;65813;49.546;8.644;2023-07-13T14:38:41;100713.38;;;24.35;34.21
76847;BME280;65813;49.546;8.644;2023-07-13T14:42:42;100709.38;;;24.52;34.46
76847;BME280;65813;49.546;8.644;2023-07-13T14:46:44;100708.97;;;24.55;34.13
76847;BME280;65813;49.546;8.644;2023-07-13T14:50:46;100703.84;;;24.45;33.31
76847;BME280;65813;49.546;8.644;2023-07-13T14:54:46;100720.41;;;24.65;33.70
76847;BME280;65813;49.546;8.644;2023-07-13T14:58:47;100709.75;;;24.70;33.71
76847;BME280;65813;49.546;8.644;2023-07-13T15:02:51;100702.94;;;24.59;34.23
76847;BME280;65813;49.546;8.644;2023-07-13T15:06:57;100705.34;;;24.48;34.57
76847;BME280;65813;49.546;8.644;2023-07-13T15:10:59;100707.81;;;24.43;35.08
76847;BME280;65813;49.546;8.644;2023-07-13T15:15:00;100701.75;;;24.69;34.62
76847;BME280;65813;49.546;8.644;2023-07-13T15:19:00;100692.28;;;25.13;34.89
76847;BME280;65813;49.546;8.644;2023-07-13T15:23:02;100698.91;;;25.60;33.86
76847;BME280;65813;49.546;8.644;2023-07-13T15:27:04;100691.53;;;25.20;33.50
76847;BME280;65813;49.546;8.644;2023-07-13T15:31:18;100689.69;;;24.99;34.48
76847;BME280;65813;49.546;8.644;2023-07-13T15:35:21;100685.00;;;24.65;34.14
76847;BME280;65813;49.546;8.644;2023-07-13T15:39:23;100683.94;;;24.66;33.58
76847;BME280;65813;49.546;8.644;2023-07-13T15:43:39;100686.03;;;24.64;34.35
76847;BME280;65813;49.546;8.644;2023-07-13T15:51:42;100680.41;;;24.44;35.36
76847;BME280;65813;49.546;8.644;2023-07-13T15:55:42;100685.69;;;24.52;34.73
76847;BME280;65813;49.546;8.644;2023-07-13T15:59:43;100677.69;;;24.72;34.66
76847;BME280;65813;49.546;8.644;2023-07-13T16:03:43;100678.47;;;24.87;34.64
76847;BME280;65813;49.546;8.644;2023-07-13T16:07:49;100681.69;;;24.97;34.73
76847;BME280;65813;49.546;8.644;2023-07-13T16:11:50;100663.09;;;25.07;35.40
76847;BME280;65813;49.546;8.644;2023-07-13T16:15:52;100676.06;;;24.99;34.44
76847;BME280;65813;49.546;8.644;2023-07-13T16:19:53;100667.88;;;24.99;33.58
76847;BME280;65813;49.546;8.644;2023-07-13T16:23:57;100660.59;;;25.06;33.61
76847;BME280;65813;49.546;8.644;2023-07-13T16:27:58;100670.16;;;24.95;33.12
76847;BME280;65813;49.546;8.644;2023-07-13T16:32:11;100661.09;;;24.88;33.04
76847;BME280;65813;49.546;8.644;2023-07-13T16:36:12;100673.94;;;24.73;33.10
76847;BME280;65813;49.546;8.644;2023-07-13T16:40:23;100672.13;;;24.59;33.18
76847;BME280;65813;49.546;8.644;2023-07-13T16:44:24;100682.34;;;24.50;33.38
76847;BME280;65813;49.546;8.644;2023-07-13T16:48:26;100675.78;;;24.45;34.34
76847;BME280;65813;49.546;8.644;2023-07-13T16:52:29;100687.97;;;24.49;34.55
76847;BME280;65813;49.546;8.644;2023-07-13T16:56:29;100688.22;;;24.33;33.93
76847;BME280;65813;49.546;8.644;2023-07-13T17:00:32;100674.41;;;24.34;34.25
76847;BME280;65813;49.546;8.644;2023-07-13T17:04:34;100678.94;;;24.27;34.30
76847;BME280;65813;49.546;8.644;2023-07-13T17:12:37;100679.25;;;24.18;34.23
76847;BME280;65813;49.546;8.644;2023-07-13T17:16:37;100674.22;;;24.14;34.10
76847;BME280;65813;49.546;8.644;2023-07-13T17:20:43;100684.47;;;24.12;35.03
76847;BME280;65813;49.546;8.644;2023-07-13T17:24:46;100680.13;;;24.18;35.10
76847;BME280;65813;49.546;8.644;2023-07-13T17:28:48;100686.81;;;24.16;35.43
76847;BME280;65813;49.546;8.644;2023-07-13T17:32:50;100682.50;;;24.06;34.36
76847;BME280;65813;49.546;8.644;2023-07-13T17:36:53;100672.34;;;24.00;35.01
76847;BME280;65813;49.546;8.644;2023-07-13T17:40:54;100688.75;;;24.07;33.99
76847;BME280;65813;49.546;8.644;2023-07-13T17:44:54;100677.41;;;24.03;34.26
76847;BME280;65813;49.546;8.644;2023-07-13T17:48:54;100674.34;;;24.28;33.52
76847;BME280;65813;49.546;8.644;2023-07-13T17:52:55;100657.69;;;24.16;33.94
76847;BME280;65813;49.546;8.644;2023-07-13T17:56:56;100666.97;;;24.07;34.16
76847;BME280;65813;49.546;8.644;2023-07-13T18:00:56;100677.47;;;24.10;33.74
76847;BME280;65813;49.546;8.644;2023-07-13T18:04:57;100681.75;;;24.12;32.86
76847;BME280;65813;49.546;8.644;2023-07-13T18:08:59;100687.72;;;24.23;32.45
76847;BME280;65813;49.546;8.644;2023-07-13T18:12:59;100676.16;;;24.21;33.38
76847;BME280;65813;49.546;8.644;2023-07-13T18:17:00;100692.31;;;24.22;32.81
76847;BME280;65813;49.546;8.644;2023-07-13T18:21:01;100692.69;;;24.19;33.25
76847;BME280;65813;49.546;8.644;2023-07-13T18:25:11;100696.00;;;24.14;33.17
76847;BME280;65813;49.546;8.644;2023-07-13T18:29:12;100701.66;;;24.13;34.30
76847;BME280;65813;49.546;8.644;2023-07-13T18:33:22;100691.16;;;23.95;34.51
76847;BME280;65813;49.546;8.644;2023-07-13T18:37:23;100701.13;;;23.88;34.69
76847;BME280;65813;49.546;8.644;2023-07-13T18:41:24;100691.56;;;23.78;36.05
76847;BME280;65813;49.546;8.644;2023-07-13T18:45:25;100694.59;;;23.68;36.50
76847;BME280;65813;49.546;8.644;2023-07-13T18:49:26;100703.13;;;23.65;36.31
76847;BME280;65813;49.546;8.644;2023-07-13T18:53:26;100704.91;;;23.58;37.83
76847;BME280;65813;49.546;8.644;2023-07-13T18:57:29;100704.16;;;23.49;38.63
76847;BME280;65813;49.546;8.644;2023-07-13T19:01:33;100702.28;;;23.50;39.73
76847;BME280;65813;49.546;8.644;2023-07-13T19:05:35;100706.97;;;23.41;39.55
76847;BME280;65813;49.546;8.644;2023-07-13T19:09:35;100705.69;;;23.14;39.83
76847;BME280;65813;49.546;8.644;2023-07-13T19:13:36;100706.28;;;23.25;39.21
76847;BME280;65813;49.546;8.644;2023-07-13T19:17:36;100703.16;;;23.28;41.38
76847;BME280;65813;49.546;8.644;2023-07-13T19:21:38;100705.78;;;23.21;41.33
76847;BME280;65813;49.546;8.644;2023-07-13T19:25:38;100724.72;;;23.14;40.35
76847;BME280;65813;49.546;8.644;2023-07-13T19:29:40;100727.56;;;23.06;42.63
76847;BME280;65813;49.546;8.644;2023-07-13T19:33:40;100732.69;;;23.01;43.17
76847;BME280;65813;49.546;8.644;2023-07-13T19:37:41;100734.44;;;22.94;41.81
76847;BME280;65813;49.546;8.644;2023-07-13T19:41:41;100736.25;;;22.79;41.48
76847;BME280;65813;49.546;8.644;2023-07-13T19:45:42;100738.81;;;22.58;41.40
76847;BME280;65813;49.546;8.644;2023-07-13T19:49:43;100753.44;;;22.49;40.86
76847;BME280;65813;49.546;8.644;2023-07-13T19:53:44;100752.94;;;21.92;41.73
76847;BME280;65813;49.546;8.644;2023-07-13T19:57:44;100765.13;;;21.88;42.13
76847;BME280;65813;49.546;8.644;2023-07-13T20:01:44;100765.53;;;22.15;41.29
76847;BME280;65813;49.546;8.644;2023-07-13T20:05:45;100771.13;;;22.14;42.01
76847;BME280;65813;49.546;8.644;2023-07-13T20:09:48;100775.69;;;22.22;42.58
76847;BME280;65813;49.546;8.644;2023-07-13T20:13:48;100768.91;;;22.17;42.68
76847;BME280;65813;49.546;8.644;2023-07-13T20:17:51;100774.16;;;22.27;44.44
76847;BME280;65813;49.546;8.644;2023-07-13T20:21:52;100777.91;;;22.18;43.04
76847;BME280;65813;49.546;8.644;2023-07-13T20:25:52;100783.59;;;22.00;45.83
76847;BME280;65813;49.546;8.644;2023-07-13T20:29:54;100786.31;;;22.00;45.77
76847;BME280;65813;49.546;8.644;2023-07-13T20:33:57;100791.50;;;21.71;46.06
76847;BME280;65813;49.546;8.644;2023-07-13T20:37:59;100784.66;;;21.91;45.54
76847;BME280;65813;49.546;8.644;2023-07-13T20:42:00;100795.88;;;21.72;45.16
76847;BME280;65813;49.546;8.644;2023-07-13T20:46:01;100800.13;;;21.66;45.46
76847;BME280;65813;49.546;8.644;2023-07-13T20:50:04;100798.63;;;21.56;45.54
76847;BME280;65813;49.546;8.644;2023-07-13T20:54:15;100793.91;;;21.42;45.18
76847;BME280;65813;49.546;8.644;2023-07-13T20:58:20;100796.50;;;21.27;44.98
76847;BME280;65813;49.546;8.644;2023-07-13T21:06:23;100801.72;;;21.04;44.91
76847;BME280;65813;49.546;8.644;2023-07-13T21:10:26;100797.66;;;20.76;44.97
76847;BME280;65813;49.546;8.644;2023-07-13T21:14:27;100805.78;;;20.68;45.54
76847;BME280;65813;49.546;8.644;2023-07-13T21:22:37;100810.50;;;20.58;45.90
76847;BME280;65813;49.546;8.644;2023-07-13T21:26:38;100811.03;;;20.61;47.26
76847;BME280;65813;49.546;8.644;2023-07-13T21:30:40;100820.50;;;20.74;47.16
76847;BME280;65813;49.546;8.644;2023-07-13T21:34:41;100808.09;;;20.47;46.20
76847;BME280;65813;49.546;8.644;2023-07-13T21:38:43;100826.78;;;20.82;47.25
76847;BME280;65813;49.546;8.644;2023-07-13T21:42:44;100817.28;;;20.78;46.89
76847;BME280;65813;49.546;8.644;2023-07-13T21:46:45;100827.97;;;20.88;46.69
76847;BME280;65813;49.546;8.644;2023-07-13T21:50:50;100827.81;;;21.05;46.11
